createdAt,value
2023-01-28T00:01:33.822Z,93.39
2023-01-28T00:04:01.423Z,93.55
2023-01-28T00:06:27.920Z,93.58
2023-01-28T00:08:55.813Z,93.54
2023-01-28T00:11:22.587Z,93.94
2023-01-28T00:13:53.342Z,93.50
2023-01-28T00:16:20.527Z,94.06
2023-01-28T00:18:46.971Z,93.48
2023-01-28T00:21:15.153Z,93.30
2023-01-28T00:23:43.120Z,93.99
2023-01-28T00:26:14.513Z,93.51
2023-01-28T00:28:43.817Z,93.84
2023-01-28T00:31:17.210Z,93.28
2023-01-28T00:33:48.265Z,93.22
2023-01-28T00:36:15.669Z,93.09
2023-01-28T00:38:42.943Z,93.63
2023-01-28T00:41:15.329Z,93.21
2023-01-28T00:43:42.686Z,93.38
2023-01-28T00:46:11.602Z,93.88
2023-01-28T00:48:40.241Z,94.16
2023-01-28T00:51:07.820Z,94.32
2023-01-28T00:53:36.093Z,94.45
2023-01-28T00:56:03.200Z,94.62
2023-01-28T00:58:30.536Z,94.85
2023-01-28T01:00:57.036Z,94.37
2023-01-28T01:03:23.473Z,95.08
2023-01-28T01:05:49.894Z,95.09
2023-01-28T01:08:16.306Z,94.61
2023-01-28T01:10:42.777Z,95.65
2023-01-28T01:13:10.150Z,95.61
2023-01-28T01:15:36.716Z,95.80
2023-01-28T01:18:03.687Z,96.24
2023-01-28T01:20:33.404Z,96.44
2023-01-28T01:22:59.906Z,96.44
2023-01-28T01:25:26.608Z,95.94
2023-01-28T01:27:53.269Z,96.38
2023-01-28T01:30:21.269Z,96.10
2023-01-28T01:32:47.734Z,96.44
2023-01-28T01:35:14.876Z,96.15
2023-01-28T01:37:44.848Z,95.39
2023-01-28T01:40:12.171Z,95.45
2023-01-28T01:42:38.654Z,94.76
2023-01-28T01:45:14.329Z,94.74
2023-01-28T01:48:03.865Z,94.82
2023-01-28T01:50:39.513Z,94.60
2023-01-28T01:53:17.691Z,94.94
2023-01-28T01:55:48.661Z,94.57
2023-01-28T01:58:19.629Z,94.62
2023-01-28T02:00:47.267Z,93.48
2023-01-28T02:03:16.924Z,94.25
2023-01-28T02:05:43.737Z,93.85
2023-01-28T02:08:22.424Z,94.15
2023-01-28T02:10:54.379Z,94.52
2023-01-28T02:13:24.468Z,93.77
2023-01-28T02:15:51.953Z,93.63
2023-01-28T02:18:18.484Z,93.60
2023-01-28T02:21:01.426Z,94.28
2023-01-28T02:23:52.976Z,93.93
2023-01-28T02:26:37.070Z,93.53
2023-01-28T02:29:28.341Z,94.47
2023-01-28T02:32:05.232Z,94.26
2023-01-28T02:34:42.586Z,94.61
2023-01-28T02:37:15.856Z,94.25
2023-01-28T02:39:49.772Z,94.20
2023-01-28T02:42:25.511Z,94.96
2023-01-28T02:44:52.723Z,94.67
2023-01-28T02:47:38.795Z,94.35
2023-01-28T02:50:18.176Z,94.74
2023-01-28T02:53:22.468Z,93.77
2023-01-28T02:56:14.503Z,94.40
2023-01-28T02:59:30.879Z,94.11
2023-01-28T03:02:36.640Z,93.62
2023-01-28T03:05:16.000Z,93.07
2023-01-28T03:07:42.924Z,93.68
2023-01-28T03:10:16.378Z,93.14
2023-01-28T03:13:03.577Z,93.26
2023-01-28T03:15:56.607Z,92.92
2023-01-28T03:18:48.011Z,93.22
2023-01-28T03:21:46.816Z,92.77
2023-01-28T03:24:39.555Z,92.66
2023-01-28T03:27:44.866Z,92.43
2023-01-28T03:30:45.808Z,92.90
2023-01-28T03:33:39.041Z,93.28
2023-01-28T03:36:26.410Z,93.39
2023-01-28T03:38:53.199Z,93.11
2023-01-28T03:41:22.454Z,93.18
2023-01-28T03:43:50.628Z,93.54
2023-01-28T03:46:18.426Z,93.23
2023-01-28T03:48:45.515Z,93.39
2023-01-28T03:51:14.617Z,93.27
2023-01-28T03:53:41.033Z,92.22
2023-01-28T03:56:08.832Z,92.44
2023-01-28T03:58:56.533Z,92.28
2023-01-28T04:01:24.162Z,92.70
2023-01-28T04:03:51.550Z,93.43
2023-01-28T04:06:28.907Z,92.79
2023-01-28T04:09:35.062Z,91.60
2023-01-28T04:12:23.894Z,91.54
2023-01-28T04:14:52.547Z,91.00
2023-01-28T04:17:26.410Z,92.13
2023-01-28T04:19:52.919Z,91.73
2023-01-28T04:22:20.792Z,91.91
2023-01-28T04:24:47.321Z,91.38
2023-01-28T04:27:16.860Z,92.16
2023-01-28T04:29:43.490Z,91.91
2023-01-28T04:32:32.341Z,91.48
2023-01-28T04:35:03.745Z,92.34
2023-01-28T04:38:08.763Z,91.87
2023-01-28T04:40:50.807Z,92.68
2023-01-28T04:43:25.846Z,92.32
2023-01-28T04:46:16.027Z,92.02
2023-01-28T04:48:52.930Z,91.49
2023-01-28T04:51:31.854Z,91.01
2023-01-28T04:54:16.897Z,91.03
2023-01-28T04:56:43.600Z,91.10
2023-01-28T04:59:10.142Z,91.00
2023-01-28T05:01:37.764Z,90.66
2023-01-28T05:04:05.718Z,89.91
2023-01-28T05:06:35.470Z,89.44
2023-01-28T05:09:24.507Z,89.67
2023-01-28T05:11:52.147Z,90.20
2023-01-28T05:14:18.689Z,89.67
2023-01-28T05:16:50.523Z,90.13
2023-01-28T05:19:18.182Z,89.71
2023-01-28T05:21:46.320Z,89.35
2023-01-28T05:24:36.222Z,89.35
2023-01-28T05:27:03.466Z,89.50
2023-01-28T05:29:29.919Z,89.53
2023-01-28T05:31:56.476Z,90.08
2023-01-28T05:34:23.439Z,89.14
2023-01-28T05:36:50.702Z,89.41
2023-01-28T05:39:35.528Z,88.91
2023-01-28T05:42:02.043Z,88.64
2023-01-28T05:44:29.111Z,88.87
2023-01-28T05:47:12.190Z,89.77
2023-01-28T05:49:46.485Z,89.55
2023-01-28T05:52:37.039Z,89.69
2023-01-28T05:55:05.189Z,90.56
2023-01-28T05:57:31.608Z,90.63
2023-01-28T05:59:58.151Z,90.53
2023-01-28T06:02:24.693Z,90.45
2023-01-28T06:04:54.965Z,90.00
2023-01-28T06:07:21.534Z,89.40
2023-01-28T06:09:48.480Z,90.09
2023-01-28T06:12:18.241Z,90.11
2023-01-28T06:15:22.896Z,89.96
2023-01-28T06:18:00.099Z,89.99
2023-01-28T06:20:28.883Z,88.98
2023-01-28T06:22:57.270Z,89.08
2023-01-28T06:25:23.967Z,88.82
2023-01-28T06:27:50.488Z,88.93
2023-01-28T06:30:17.419Z,88.80
2023-01-28T06:32:44.696Z,89.74
2023-01-28T06:35:11.952Z,89.75
2023-01-28T06:37:39.567Z,90.89
2023-01-28T06:40:06.590Z,91.02
2023-01-28T06:42:33.035Z,90.94
2023-01-28T06:44:59.450Z,90.50
2023-01-28T06:47:25.883Z,90.19
2023-01-28T06:49:52.335Z,90.48
2023-01-28T06:52:18.746Z,91.15
2023-01-28T06:54:45.263Z,90.79
2023-01-28T06:57:11.725Z,90.47
2023-01-28T06:59:38.249Z,90.72
2023-01-28T07:02:04.685Z,90.67
2023-01-28T07:04:31.661Z,90.06
2023-01-28T07:06:58.169Z,90.13
2023-01-28T07:09:24.583Z,90.15
2023-01-28T07:11:51.006Z,89.95
2023-01-28T07:14:17.434Z,90.26
2023-01-28T07:16:43.847Z,89.47
2023-01-28T07:19:10.512Z,90.26
2023-01-28T07:21:36.918Z,89.98
2023-01-28T07:24:05.322Z,90.49
2023-01-28T07:26:32.071Z,89.72
2023-01-28T07:28:58.515Z,90.20
2023-01-28T07:31:25.023Z,90.53
2023-01-28T07:33:51.524Z,89.65
2023-01-28T07:36:17.959Z,89.83
2023-01-28T07:38:44.629Z,89.50
2023-01-28T07:41:11.237Z,100.00
2023-01-28T07:43:37.659Z,95.28
2023-01-28T07:46:04.193Z,90.23
2023-01-28T07:48:30.906Z,85.69
2023-01-28T07:51:25.686Z,85.69
2023-01-28T07:53:52.474Z,86.76
2023-01-28T07:56:18.917Z,86.64
2023-01-28T07:58:45.315Z,87.67
2023-01-28T08:01:11.812Z,87.53
2023-01-28T08:03:38.247Z,87.31
2023-01-28T08:06:05.072Z,87.71
2023-01-28T08:08:32.018Z,88.49
2023-01-28T08:10:58.444Z,88.35
2023-01-28T08:13:24.889Z,87.94
2023-01-28T08:15:55.584Z,87.72
2023-01-28T08:18:22.157Z,88.07
2023-01-28T08:20:48.569Z,87.71
2023-01-28T08:23:19.547Z,87.51
2023-01-28T08:25:47.240Z,86.96
2023-01-28T08:28:15.636Z,86.69
2023-01-28T08:30:42.718Z,87.12
2023-01-28T08:33:11.811Z,86.81
2023-01-28T08:35:38.370Z,86.94
2023-01-28T08:38:06.659Z,87.64
2023-01-28T08:40:33.957Z,87.43
2023-01-28T08:43:00.781Z,86.61
2023-01-28T08:45:28.504Z,87.73
2023-01-28T08:48:03.390Z,87.50
2023-01-28T08:50:35.911Z,86.94
2023-01-28T08:53:05.127Z,86.86
2023-01-28T08:55:31.588Z,87.70
2023-01-28T08:58:01.557Z,87.31
2023-01-28T09:00:28.057Z,86.81
2023-01-28T09:02:54.716Z,87.55
2023-01-28T09:05:21.528Z,87.45
2023-01-28T09:07:49.093Z,87.04
2023-01-28T09:10:16.604Z,86.84
2023-01-28T09:12:44.203Z,87.33
2023-01-28T09:15:11.598Z,87.74
2023-01-28T09:17:38.177Z,87.14
2023-01-28T09:20:06.158Z,87.57
2023-01-28T09:22:32.801Z,86.89
2023-01-28T09:24:59.237Z,87.06
2023-01-28T09:27:25.687Z,87.61
2023-01-28T09:29:52.155Z,87.67
2023-01-28T09:32:18.573Z,87.17
2023-01-28T09:34:44.992Z,86.92
2023-01-28T09:37:11.962Z,86.84
2023-01-28T09:39:38.710Z,86.48
2023-01-28T09:42:22.816Z,86.77
2023-01-28T09:45:13.427Z,87.27
2023-01-28T09:47:41.829Z,85.88
2023-01-28T09:50:16.158Z,86.03
2023-01-28T09:52:43.234Z,85.54
2023-01-28T09:55:19.400Z,85.12
2023-01-28T09:57:52.152Z,85.44
2023-01-28T10:00:24.521Z,85.09
2023-01-28T10:03:03.301Z,86.17
2023-01-28T10:05:46.354Z,86.50
2023-01-28T10:08:27.520Z,85.72
2023-01-28T10:11:17.783Z,84.84
2023-01-28T10:13:57.163Z,85.20
2023-01-28T10:16:50.367Z,84.92
2023-01-28T10:19:23.752Z,85.12
2023-01-28T10:21:57.014Z,85.01
2023-01-28T10:24:31.322Z,85.15
2023-01-28T10:26:58.246Z,85.44
2023-01-28T10:29:29.391Z,86.03
2023-01-28T10:32:03.000Z,85.38
2023-01-28T10:34:29.421Z,84.85
2023-01-28T10:36:57.654Z,85.98
2023-01-28T10:39:26.032Z,84.41
2023-01-28T10:41:58.238Z,84.68
2023-01-28T10:44:32.501Z,84.28
2023-01-28T10:47:01.932Z,84.14
2023-01-28T10:49:31.343Z,84.76
2023-01-28T10:51:58.549Z,83.76
2023-01-28T10:54:27.314Z,84.44
2023-01-28T10:56:57.362Z,84.20
2023-01-28T10:59:29.890Z,84.91
2023-01-28T11:02:00.893Z,84.86
2023-01-28T11:04:33.198Z,84.33
2023-01-28T11:07:04.745Z,83.85
2023-01-28T11:09:34.194Z,84.30
2023-01-28T11:12:21.109Z,83.76
2023-01-28T11:14:53.118Z,84.03
2023-01-28T11:17:24.470Z,83.52
2023-01-28T11:19:53.571Z,82.50
2023-01-28T11:22:28.816Z,82.71
2023-01-28T11:24:55.521Z,82.96
2023-01-28T11:27:29.591Z,82.89
2023-01-28T11:30:04.177Z,83.34
2023-01-28T11:32:31.115Z,83.57
2023-01-28T11:34:59.110Z,83.24
2023-01-28T11:37:27.677Z,82.13
2023-01-28T11:40:19.159Z,82.57
2023-01-28T11:42:49.726Z,83.31
2023-01-28T11:45:25.714Z,83.73
2023-01-28T11:48:24.300Z,82.58
2023-01-28T11:51:04.269Z,82.26
2023-01-28T11:54:08.547Z,82.56
2023-01-28T11:57:16.850Z,82.27
2023-01-28T12:00:14.202Z,81.96
2023-01-28T12:02:53.500Z,81.52
2023-01-28T12:05:28.839Z,80.27
2023-01-28T12:08:16.548Z,80.62
2023-01-28T12:11:00.412Z,81.38
2023-01-28T12:13:48.574Z,80.71
2023-01-28T12:16:41.627Z,81.32
2023-01-28T12:19:16.701Z,80.16
2023-01-28T12:21:55.198Z,80.71
2023-01-28T12:24:57.303Z,80.65
2023-01-28T12:27:51.757Z,80.30
2023-01-28T12:30:19.284Z,80.05
2023-01-28T12:32:48.405Z,80.11
2023-01-28T12:35:24.838Z,80.58
2023-01-28T12:37:54.257Z,80.22
2023-01-28T12:40:38.751Z,81.18
2023-01-28T12:43:19.318Z,81.06
2023-01-28T12:46:02.835Z,81.43
2023-01-28T12:48:48.153Z,80.05
2023-01-28T12:51:18.190Z,80.47
2023-01-28T12:53:59.532Z,80.52
2023-01-28T12:56:31.975Z,80.65
2023-01-28T12:59:02.525Z,80.42
2023-01-28T13:01:58.076Z,78.81
2023-01-28T13:04:52.604Z,79.24
2023-01-28T13:07:35.845Z,80.39
2023-01-28T13:10:10.983Z,79.62
2023-01-28T13:12:40.434Z,80.06
2023-01-28T13:15:13.404Z,79.48
2023-01-28T13:17:40.051Z,79.58
2023-01-28T13:20:17.391Z,79.24
2023-01-28T13:22:44.428Z,78.99
2023-01-28T13:25:23.829Z,79.64
2023-01-28T13:28:05.537Z,80.24
2023-01-28T13:30:34.627Z,79.88
2023-01-28T13:33:26.049Z,79.80
2023-01-28T13:35:55.355Z,80.63
2023-01-28T13:38:22.628Z,78.99
2023-01-28T13:41:06.575Z,79.46
2023-01-28T13:43:32.978Z,79.39
2023-01-28T13:46:03.314Z,79.98
2023-01-28T13:48:54.464Z,80.32
2023-01-28T13:51:23.132Z,80.40
2023-01-28T13:54:03.866Z,80.10
2023-01-28T13:56:59.462Z,81.10
2023-01-28T13:59:49.432Z,80.43
2023-01-28T14:02:49.928Z,81.00
2023-01-28T14:05:36.361Z,80.84
2023-01-28T14:08:17.825Z,80.07
2023-01-28T14:11:06.007Z,80.08
2023-01-28T14:14:02.222Z,79.82
2023-01-28T14:16:53.821Z,80.53
2023-01-28T14:19:28.282Z,79.78
2023-01-28T14:21:55.847Z,79.75
2023-01-28T14:24:23.136Z,80.03
2023-01-28T14:27:05.903Z,80.48
2023-01-28T14:29:48.018Z,79.41
2023-01-28T14:32:27.049Z,79.37
2023-01-28T14:34:54.730Z,80.43
2023-01-28T14:37:25.749Z,79.54
2023-01-28T14:39:57.827Z,79.74
2023-01-28T14:42:32.571Z,80.65
2023-01-28T14:45:05.789Z,81.12
2023-01-28T14:48:22.319Z,80.19
2023-01-28T14:51:24.226Z,80.73
2023-01-28T14:54:02.416Z,80.04
2023-01-28T14:56:59.060Z,79.61
2023-01-28T14:59:31.738Z,79.85
2023-01-28T15:01:59.684Z,80.72
2023-01-28T15:04:33.591Z,80.16
2023-01-28T15:07:17.550Z,79.80
2023-01-28T15:09:44.830Z,79.27
2023-01-28T15:12:12.379Z,79.66
2023-01-28T15:14:40.224Z,79.23
2023-01-28T15:17:12.185Z,79.47
2023-01-28T15:19:40.120Z,79.26
2023-01-28T15:22:08.095Z,79.08
2023-01-28T15:24:36.077Z,79.17
2023-01-28T15:27:03.000Z,79.24
2023-01-28T15:29:36.286Z,78.14
2023-01-28T15:32:04.417Z,77.62
2023-01-28T15:34:31.022Z,76.73
2023-01-28T15:36:58.959Z,76.87
2023-01-28T15:39:27.807Z,77.72
2023-01-28T15:41:59.172Z,76.37
2023-01-28T15:44:32.655Z,76.25
2023-01-28T15:47:01.008Z,77.14
2023-01-28T15:49:31.866Z,77.44
2023-01-28T15:51:58.657Z,77.28
2023-01-28T15:54:25.883Z,76.23
2023-01-28T15:56:52.741Z,76.46
2023-01-28T15:59:26.468Z,77.50
2023-01-28T16:02:12.389Z,77.10
2023-01-28T16:04:38.789Z,77.70
2023-01-28T16:07:05.706Z,78.93
2023-01-28T16:09:34.272Z,77.80
2023-01-28T16:12:02.908Z,77.11
2023-01-28T16:14:34.389Z,77.67
2023-01-28T16:17:00.968Z,77.83
2023-01-28T16:19:41.322Z,77.65
2023-01-28T16:22:18.035Z,76.75
2023-01-28T16:24:52.860Z,77.39
2023-01-28T16:27:25.546Z,76.54
2023-01-28T16:29:52.174Z,76.79
2023-01-28T16:32:36.798Z,77.72
2023-01-28T16:35:10.866Z,77.62
2023-01-28T16:37:39.404Z,78.34
2023-01-28T16:40:09.146Z,78.18
2023-01-28T16:42:35.594Z,79.10
2023-01-28T16:45:03.057Z,78.07
2023-01-28T16:47:29.452Z,78.14
2023-01-28T16:49:55.889Z,77.75
2023-01-28T16:52:22.384Z,77.95
2023-01-28T16:54:49.009Z,76.55
2023-01-28T16:57:18.651Z,75.06
2023-01-28T16:59:45.461Z,74.97
2023-01-28T17:02:13.242Z,75.06
2023-01-28T17:04:39.750Z,74.29
2023-01-28T17:07:06.894Z,73.43
2023-01-28T17:09:33.374Z,73.09
2023-01-28T17:12:01.837Z,73.54
2023-01-28T17:14:28.613Z,73.26
2023-01-28T17:16:55.027Z,73.83
2023-01-28T17:19:21.455Z,73.42
2023-01-28T17:21:47.898Z,73.61
2023-01-28T17:24:14.411Z,74.23
2023-01-28T17:26:40.895Z,74.03
2023-01-28T17:29:07.896Z,74.22
2023-01-28T17:31:37.256Z,72.95
2023-01-28T17:34:06.770Z,73.35
2023-01-28T17:36:33.327Z,73.40
2023-01-28T17:38:59.728Z,72.13
2023-01-28T17:41:26.145Z,72.11
2023-01-28T17:43:54.460Z,71.70
2023-01-28T17:46:22.499Z,71.30
2023-01-28T17:48:48.916Z,71.72
2023-01-28T17:51:18.958Z,72.20
2023-01-28T17:53:50.560Z,71.48
2023-01-28T17:56:21.719Z,71.84
2023-01-28T17:58:56.214Z,71.22
2023-01-28T18:01:24.568Z,70.25
2023-01-28T18:03:51.042Z,71.06
2023-01-28T18:06:17.974Z,71.65
2023-01-28T18:08:45.035Z,72.51
2023-01-28T18:11:14.564Z,72.48
2023-01-28T18:13:42.134Z,69.96
2023-01-28T18:16:14.832Z,69.20
2023-01-28T18:18:41.782Z,69.70
2023-01-28T18:21:18.684Z,69.04
2023-01-28T18:23:45.092Z,69.47
2023-01-28T18:26:11.511Z,70.36
2023-01-28T18:28:38.013Z,70.11
2023-01-28T18:31:06.576Z,69.84
2023-01-28T18:33:33.789Z,68.71
2023-01-28T18:36:00.237Z,68.95
2023-01-28T18:38:26.714Z,69.24
2023-01-28T18:40:56.836Z,68.78
2023-01-28T18:43:23.324Z,68.36
2023-01-28T18:45:52.015Z,68.31
2023-01-28T18:48:18.878Z,68.17
2023-01-28T18:50:52.958Z,68.95
2023-01-28T18:53:20.343Z,68.10
2023-01-28T18:55:46.943Z,68.01
2023-01-28T18:58:13.354Z,69.40
2023-01-28T19:00:40.078Z,68.13
2023-01-28T19:03:06.744Z,67.50
2023-01-28T19:05:37.145Z,67.32
2023-01-28T19:08:09.375Z,68.33
2023-01-28T19:10:36.177Z,68.01
2023-01-28T19:13:03.189Z,68.60
2023-01-28T19:15:30.672Z,68.97
2023-01-28T19:17:57.359Z,84.53
2023-01-28T19:20:23.896Z,72.24
2023-01-28T19:22:50.492Z,71.61
2023-01-28T19:25:17.506Z,67.39
2023-01-28T19:27:44.056Z,66.92
2023-01-28T19:30:10.926Z,66.62
2023-01-28T19:32:37.430Z,66.92
2023-01-28T19:35:04.232Z,67.49
2023-01-28T19:37:30.713Z,67.59
2023-01-28T19:39:57.135Z,67.80
2023-01-28T19:42:23.878Z,68.02
2023-01-28T19:44:51.266Z,68.89
2023-01-28T19:47:17.696Z,67.94
2023-01-28T19:49:44.139Z,67.64
2023-01-28T19:52:10.929Z,69.00
2023-01-28T19:54:37.598Z,68.70
2023-01-28T19:57:04.046Z,69.00
2023-01-28T19:59:30.641Z,69.20
2023-01-28T20:01:57.130Z,67.49
2023-01-28T20:04:23.599Z,67.38
2023-01-28T20:06:50.272Z,67.43
2023-01-28T20:09:19.743Z,68.40
2023-01-28T20:11:46.444Z,68.06
2023-01-28T20:14:14.960Z,67.25
2023-01-28T20:16:41.920Z,67.28
2023-01-28T20:19:14.154Z,67.86
2023-01-28T20:21:41.007Z,68.13
2023-01-28T20:24:07.819Z,67.60
2023-01-28T20:26:37.490Z,67.92
2023-01-28T20:29:06.636Z,67.56
2023-01-28T20:31:33.693Z,68.11
2023-01-28T20:34:00.826Z,67.79
2023-01-28T20:36:27.407Z,65.98
2023-01-28T20:38:53.870Z,65.57
2023-01-28T20:41:22.672Z,66.07
2023-01-28T20:43:50.546Z,65.76
2023-01-28T20:46:20.814Z,66.22
2023-01-28T20:48:48.024Z,66.68
2023-01-28T20:51:16.619Z,66.82
2023-01-28T20:53:44.681Z,66.38
2023-01-28T20:56:17.545Z,66.59
2023-01-28T20:58:44.892Z,66.83
2023-01-28T21:01:19.797Z,66.96
2023-01-28T21:03:46.784Z,66.26
2023-01-28T21:06:13.349Z,67.03
2023-01-28T21:08:39.802Z,66.88
2023-01-28T21:11:07.302Z,67.44
2023-01-28T21:13:34.679Z,68.46
2023-01-28T21:16:01.212Z,68.36
2023-01-28T21:18:27.915Z,68.11
2023-01-28T21:20:54.993Z,68.65
2023-01-28T21:23:24.933Z,67.89
2023-01-28T21:25:52.393Z,68.77
2023-01-28T21:28:19.564Z,66.36
2023-01-28T21:30:46.379Z,67.27
2023-01-28T21:33:13.089Z,66.98
2023-01-28T21:35:40.908Z,66.56
2023-01-28T21:38:07.897Z,66.23
2023-01-28T21:40:35.389Z,66.00
2023-01-28T21:43:02.079Z,66.33
2023-01-28T21:45:28.642Z,65.60
2023-01-28T21:47:55.225Z,65.74
2023-01-28T21:50:22.497Z,65.25
2023-01-28T21:52:50.358Z,66.58
2023-01-28T21:55:17.869Z,66.64
2023-01-28T21:57:44.329Z,66.40
2023-01-28T22:00:12.455Z,65.67
2023-01-28T22:02:39.378Z,65.37
2023-01-28T22:05:06.233Z,64.84
2023-01-28T22:07:32.840Z,64.88
2023-01-28T22:09:59.271Z,65.61
2023-01-28T22:12:27.401Z,65.13
2023-01-28T22:14:53.980Z,65.26
2023-01-28T22:17:20.530Z,65.03
2023-01-28T22:19:48.175Z,65.92
2023-01-28T22:22:15.778Z,65.62
2023-01-28T22:24:42.566Z,65.67
2023-01-28T22:27:09.082Z,66.08
2023-01-28T22:29:35.477Z,65.76
2023-01-28T22:32:04.650Z,65.13
2023-01-28T22:34:31.308Z,65.45
2023-01-28T22:36:57.733Z,65.44
2023-01-28T22:39:24.264Z,66.14
2023-01-28T22:41:50.763Z,65.28
2023-01-28T22:44:19.633Z,65.00
2023-01-28T22:46:47.122Z,65.13
2023-01-28T22:49:14.990Z,64.51
2023-01-28T22:51:42.411Z,64.11
2023-01-28T22:54:11.265Z,65.00
2023-01-28T22:56:38.281Z,65.03
2023-01-28T22:59:04.879Z,66.23
2023-01-28T23:01:32.373Z,65.73
2023-01-28T23:03:59.237Z,65.66
2023-01-28T23:06:27.462Z,65.09
2023-01-28T23:08:54.605Z,66.02
2023-01-28T23:11:27.295Z,66.09
2023-01-28T23:14:15.647Z,66.15
2023-01-28T23:17:00.873Z,66.37
2023-01-28T23:19:46.092Z,66.78
2023-01-28T23:22:34.373Z,66.53
2023-01-28T23:25:00.862Z,66.07
2023-01-28T23:27:27.323Z,66.76
2023-01-28T23:29:53.856Z,66.90
2023-01-28T23:32:21.282Z,66.39
2023-01-28T23:34:47.823Z,65.63
2023-01-28T23:37:14.582Z,65.72
2023-01-28T23:39:41.552Z,65.43
2023-01-28T23:42:17.572Z,65.89
2023-01-28T23:44:44.534Z,65.54
2023-01-28T23:47:11.444Z,65.58
2023-01-28T23:49:38.512Z,65.73
2023-01-28T23:52:06.308Z,65.72
2023-01-28T23:54:33.531Z,65.05
2023-01-28T23:57:00.975Z,63.74
2023-01-28T23:59:27.703Z,64.87
